Time;durP1;ratioP1;P1;durP2;ratioP2;P2;SDS_P1;SDS_P2;PMS_P1;PMS_P2;Temp;Humidity;BMP_temperature;BMP_pressure;BME280_temperature;BME280_humidity;BME280_pressure;Samples;Min_cycle;Max_cycle;Signal;HPM_P1;HPM_P2
2021/05/04 00:01:26;;;;;;;57.78;2.90;;;4.90;92.80;;;;;;5091067;28;20259;-65
2021/05/04 00:03:53;;;;;;;58.10;3.40;;;4.90;94.20;;;;;;5090661;28;20295;-65
2021/05/04 00:06:19;;;;;;;57.67;3.00;;;5.00;94.30;;;;;;5090955;28;20204;-66
2021/05/04 00:08:45;;;;;;;57.22;2.90;;;5.00;94.30;;;;;;5090761;28;20258;-65
2021/05/04 00:11:12;;;;;;;57.97;3.03;;;5.00;94.30;;;;;;5091239;28;20266;-66
2021/05/04 00:13:38;;;;;;;57.67;2.58;;;5.00;94.30;;;;;;5094205;28;20611;-66
2021/05/04 00:16:05;;;;;;;58.05;3.10;;;5.10;94.00;;;;;;5093683;28;20311;-65
2021/05/04 00:18:32;;;;;;;58.10;3.00;;;5.10;93.80;;;;;;5092040;28;20204;-66
2021/05/04 00:20:58;;;;;;;58.10;2.92;;;5.00;93.80;;;;;;5094568;28;20255;-65
2021/05/04 00:23:25;;;;;;;57.78;2.92;;;5.10;93.80;;;;;;5093854;28;20264;-66
2021/05/04 00:25:52;;;;;;;57.58;2.60;;;5.10;93.80;;;;;;5094039;28;20205;-65
2021/05/04 00:28:18;;;;;;;58.65;3.50;;;5.10;93.80;;;;;;5094274;28;20209;-66
2021/05/04 00:30:45;;;;;;;58.38;3.20;;;5.10;93.70;;;;;;5094194;28;20235;-65
2021/05/04 00:33:11;;;;;;;57.13;2.67;;;5.10;93.70;;;;;;5093982;28;20291;-66
2021/05/04 00:35:38;;;;;;;57.45;2.70;;;5.20;93.60;;;;;;5093766;28;20220;-66
2021/05/04 00:38:05;;;;;;;57.60;2.55;;;5.20;93.40;;;;;;5094051;28;20219;-65
2021/05/04 00:40:31;;;;;;;57.90;3.20;;;5.20;93.40;;;;;;5094303;28;20227;-66
2021/05/04 00:42:58;;;;;;;57.35;2.60;;;5.30;93.10;;;;;;5093931;28;20295;-65
2021/05/04 00:45:25;;;;;;;57.33;2.80;;;5.30;92.80;;;;;;5094252;28;20290;-67
2021/05/04 00:47:51;;;;;;;59.00;4.57;;;5.40;92.60;;;;;;5086685;28;20295;-65
2021/05/04 00:50:17;;;;;;;57.80;2.75;;;5.40;92.50;;;;;;5080281;28;20305;-66
2021/05/04 00:52:45;;;;;;;57.58;2.60;;;5.40;92.20;;;;;;5093479;28;20218;-66
2021/05/04 00:55:12;;;;;;;57.75;2.63;;;5.40;91.90;;;;;;5093913;28;20294;-66
2021/05/04 00:57:40;;;;;;;57.80;2.50;;;5.50;91.70;;;;;;5093761;28;20218;-66
2021/05/04 01:00:08;;;;;;;58.00;3.00;;;5.40;91.80;;;;;;5093603;28;20727;-66
2021/05/04 01:02:35;;;;;;;57.63;2.65;;;5.40;91.60;;;;;;5093456;28;20668;-65
2021/05/04 01:05:02;;;;;;;57.75;2.53;;;5.40;91.50;;;;;;5093196;28;20204;-66
2021/05/04 01:07:28;;;;;;;57.38;2.78;;;5.40;91.60;;;;;;5093616;28;20698;-65
2021/05/04 01:09:56;;;;;;;57.58;2.78;;;5.40;91.50;;;;;;5093637;28;20224;-65
2021/05/04 01:12:23;;;;;;;57.88;2.80;;;5.40;91.40;;;;;;5092803;28;20655;-65
2021/05/04 01:14:49;;;;;;;57.58;2.80;;;5.40;91.30;;;;;;5093518;28;20261;-66
2021/05/04 01:17:15;;;;;;;58.30;2.80;;;5.40;91.10;;;;;;5093386;28;20664;-65
2021/05/04 01:19:42;;;;;;;57.70;3.00;;;5.40;91.10;;;;;;5078729;28;20653;-65
2021/05/04 01:22:09;;;;;;;57.78;2.80;;;5.40;91.30;;;;;;5085850;28;20677;-65
2021/05/04 01:24:36;;;;;;;57.70;2.80;;;5.40;91.40;;;;;;5092921;28;20353;-66
2021/05/04 01:27:03;;;;;;;57.28;2.40;;;5.40;91.20;;;;;;5093107;28;20283;-66
2021/05/04 01:29:29;;;;;;;58.17;2.88;;;5.40;91.30;;;;;;5093108;28;20239;-66
2021/05/04 01:31:55;;;;;;;57.60;2.25;;;5.40;91.10;;;;;;5093284;28;20295;-66
2021/05/04 01:34:22;;;;;;;57.67;2.90;;;5.40;91.10;;;;;;5092870;28;20295;-66
2021/05/04 01:36:49;;;;;;;57.55;2.70;;;5.30;91.10;;;;;;5093023;28;20319;-65
2021/05/04 01:39:16;;;;;;;57.85;2.50;;;5.40;91.10;;;;;;5093147;28;20208;-66
2021/05/04 01:41:44;;;;;;;58.67;2.78;;;5.40;91.00;;;;;;5093060;28;20331;-66
2021/05/04 01:44:10;;;;;;;57.65;2.50;;;5.40;91.10;;;;;;5092257;28;20684;-65
2021/05/04 01:46:38;;;;;;;57.55;2.60;;;5.40;91.20;;;;;;5092575;28;20212;-66
2021/05/04 01:49:07;;;;;;;57.28;2.63;;;5.40;91.30;;;;;;5091989;28;20243;-66
2021/05/04 01:51:34;;;;;;;57.55;2.28;;;5.40;91.40;;;;;;5073255;28;20732;-66
2021/05/04 01:54:01;;;;;;;57.35;2.53;;;5.40;91.40;;;;;;5072019;28;20201;-66
2021/05/04 01:56:28;;;;;;;57.17;2.30;;;5.30;91.50;;;;;;5072170;28;20225;-66
2021/05/04 01:58:59;;;;;;;57.55;2.42;;;5.30;91.50;;;;;;5072339;28;20206;-67
2021/05/04 02:01:25;;;;;;;57.38;2.35;;;5.30;91.70;;;;;;5072202;28;20233;-65
2021/05/04 02:03:51;;;;;;;57.35;2.50;;;5.30;91.50;;;;;;5072027;28;20390;-66
2021/05/04 02:06:18;;;;;;;57.58;2.30;;;5.30;91.50;;;;;;5072147;28;20204;-66
2021/05/04 02:08:44;;;;;;;57.42;2.30;;;5.30;91.60;;;;;;5072587;28;20641;-66
2021/05/04 02:11:10;;;;;;;57.78;2.60;;;5.20;91.60;;;;;;5072088;28;20225;-66
2021/05/04 02:13:38;;;;;;;58.05;2.80;;;5.20;91.60;;;;;;5071525;28;20209;-66
2021/05/04 02:16:04;;;;;;;57.45;2.47;;;5.20;91.60;;;;;;5071851;28;20764;-65
2021/05/04 02:18:31;;;;;;;58.20;3.33;;;5.20;91.60;;;;;;5072035;28;20205;-66
2021/05/04 02:20:57;;;;;;;57.45;2.65;;;5.20;91.60;;;;;;5068919;28;20320;-65
2021/05/04 02:23:23;;;;;;;57.28;2.45;;;5.20;91.70;;;;;;5078657;28;20203;-65
2021/05/04 02:25:51;;;;;;;57.17;2.58;;;5.20;91.70;;;;;;5091979;28;20232;-65
2021/05/04 02:28:17;;;;;;;57.60;2.58;;;5.20;91.60;;;;;;5091930;28;20295;-66
2021/05/04 02:30:45;;;;;;;57.58;2.47;;;5.20;91.60;;;;;;5092307;28;20678;-65
2021/05/04 02:33:11;;;;;;;57.17;2.47;;;5.20;91.70;;;;;;5091900;28;20294;-66
2021/05/04 02:35:38;;;;;;;57.25;2.83;;;5.20;91.60;;;;;;5090939;28;20307;-66
2021/05/04 02:38:04;;;;;;;56.95;2.17;;;5.20;91.50;;;;;;5091952;28;20290;-66
2021/05/04 02:40:30;;;;;;;57.42;2.55;;;5.20;91.50;;;;;;5091690;28;20319;-65
2021/05/04 02:42:57;;;;;;;57.28;2.50;;;5.30;91.60;;;;;;5091437;28;20692;-66
2021/05/04 02:45:23;;;;;;;57.50;2.40;;;5.30;91.80;;;;;;5091546;28;20208;-66
2021/05/04 02:47:50;;;;;;;57.47;2.38;;;5.30;91.90;;;;;;5091982;28;20258;-65
2021/05/04 02:50:17;;;;;;;57.80;3.20;;;5.30;91.70;;;;;;5091853;28;20228;-65
2021/05/04 02:52:43;;;;;;;57.67;2.53;;;5.30;91.90;;;;;;5087165;28;20651;-66
2021/05/04 02:55:10;;;;;;;57.25;2.80;;;5.40;91.80;;;;;;5091310;28;20219;-65
2021/05/04 02:57:37;;;;;;;57.58;2.47;;;5.40;91.50;;;;;;5091639;28;20210;-65
2021/05/04 03:00:05;;;;;;;56.85;2.83;;;5.40;91.50;;;;;;5091781;28;20315;-66
2021/05/04 03:02:31;;;;;;;57.25;2.50;;;5.40;91.60;;;;;;5091382;28;20333;-66
2021/05/04 03:04:58;;;;;;;57.55;2.40;;;5.40;91.70;;;;;;5091357;28;20200;-66
2021/05/04 03:07:25;;;;;;;57.85;2.83;;;5.40;91.60;;;;;;5091640;28;20354;-66
2021/05/04 03:09:51;;;;;;;57.40;2.53;;;5.50;91.60;;;;;;5091330;28;20264;-66
2021/05/04 03:12:17;;;;;;;57.58;2.55;;;5.50;91.70;;;;;;5091386;28;20214;-66
2021/05/04 03:14:43;;;;;;;57.38;2.50;;;5.60;91.60;;;;;;5091635;28;20305;-65
2021/05/04 03:17:10;;;;;;;57.55;2.50;;;5.60;91.50;;;;;;5091368;28;20677;-66
2021/05/04 03:19:36;;;;;;;57.55;2.90;;;5.70;91.20;;;;;;5091267;28;20208;-66
2021/05/04 03:22:03;;;;;;;57.47;2.60;;;5.80;90.90;;;;;;5091061;28;20208;-66
2021/05/04 03:24:30;;;;;;;57.75;2.70;;;5.90;90.70;;;;;;5088815;28;20204;-66
2021/05/04 03:26:56;;;;;;;57.47;2.70;;;5.90;90.00;;;;;;5074287;28;20239;-66
2021/05/04 03:29:22;;;;;;;58.00;3.20;;;6.00;88.60;;;;;;5071312;28;20364;-66
2021/05/04 03:31:49;;;;;;;58.28;2.85;;;6.00;86.60;;;;;;5071059;28;20228;-66
2021/05/04 03:34:15;;;;;;;57.47;2.70;;;6.10;86.10;;;;;;5071506;28;20303;-65
2021/05/04 03:36:42;;;;;;;57.47;2.60;;;6.10;85.10;;;;;;5071029;28;20312;-65
2021/05/04 03:39:09;;;;;;;57.35;2.47;;;6.20;84.30;;;;;;5070901;28;20292;-66
2021/05/04 03:41:35;;;;;;;57.45;2.40;;;6.20;82.80;;;;;;5071417;28;20259;-66
2021/05/04 03:44:02;;;;;;;57.60;2.60;;;6.30;82.50;;;;;;5070560;28;20288;-66
2021/05/04 03:46:28;;;;;;;57.40;2.50;;;6.30;82.30;;;;;;5073036;28;20278;-66
2021/05/04 03:48:54;;;;;;;57.78;2.80;;;6.30;82.10;;;;;;5074807;28;20209;-65
2021/05/04 03:51:21;;;;;;;57.28;2.45;;;6.30;82.00;;;;;;5074582;28;20246;-65
2021/05/04 03:53:47;;;;;;;57.40;2.38;;;6.30;82.00;;;;;;5072730;28;20692;-66
2021/05/04 03:56:14;;;;;;;57.10;2.33;;;6.30;82.00;;;;;;5075995;28;20756;-66
2021/05/04 03:58:41;;;;;;;57.30;2.58;;;6.30;81.90;;;;;;5094971;28;20743;-66
2021/05/04 04:01:07;;;;;;;57.60;2.53;;;6.20;81.90;;;;;;5094937;28;20341;-65
2021/05/04 04:03:33;;;;;;;57.88;2.75;;;6.20;81.90;;;;;;5094288;28;20247;-66
2021/05/04 04:06:00;;;;;;;57.97;2.40;;;6.20;82.10;;;;;;5094814;28;20243;-65
2021/05/04 04:08:26;;;;;;;57.33;2.50;;;6.20;82.40;;;;;;5094583;28;20246;-65
2021/05/04 04:10:52;;;;;;;57.58;2.60;;;6.20;82.20;;;;;;5094943;28;20282;-66
2021/05/04 04:13:20;;;;;;;57.45;2.28;;;6.20;82.20;;;;;;5094535;28;20291;-65
2021/05/04 04:15:46;;;;;;;57.33;2.50;;;6.20;82.30;;;;;;5094283;28;20759;-65
2021/05/04 04:18:12;;;;;;;57.60;2.60;;;6.20;82.20;;;;;;5094539;28;20265;-65
2021/05/04 04:20:39;;;;;;;59.05;3.20;;;6.20;82.40;;;;;;5094494;28;20229;-66
2021/05/04 04:23:05;;;;;;;57.28;2.35;;;6.20;82.60;;;;;;5094078;28;20303;-65
2021/05/04 04:25:33;;;;;;;57.58;2.70;;;6.20;82.30;;;;;;5085086;28;20266;-66
2021/05/04 04:27:59;;;;;;;57.55;2.67;;;6.20;82.10;;;;;;5082780;28;20227;-66
2021/05/04 04:30:26;;;;;;;57.47;2.50;;;6.20;82.10;;;;;;5094347;28;20284;-65
2021/05/04 04:32:53;;;;;;;57.58;2.97;;;6.20;81.80;;;;;;5093959;28;20205;-65
2021/05/04 04:35:19;;;;;;;57.15;2.67;;;6.30;81.70;;;;;;5094046;28;20244;-65
2021/05/04 04:37:46;;;;;;;57.60;2.25;;;6.40;81.50;;;;;;5094225;28;20645;-66
2021/05/04 04:40:13;;;;;;;57.70;2.90;;;6.40;81.20;;;;;;5094029;28;20897;-66
2021/05/04 04:42:39;;;;;;;57.80;2.63;;;6.40;80.30;;;;;;5093932;28;20643;-65
2021/05/04 04:45:07;;;;;;;57.45;2.25;;;6.50;79.30;;;;;;5094376;28;20661;-65
2021/05/04 04:47:34;;;;;;;57.47;2.47;;;6.60;78.50;;;;;;5094031;28;20287;-66
2021/05/04 04:50:01;;;;;;;57.60;2.45;;;6.60;78.10;;;;;;5094170;28;20310;-66
2021/05/04 04:52:27;;;;;;;57.70;3.40;;;6.70;77.20;;;;;;5093576;28;20681;-66
2021/05/04 04:54:53;;;;;;;57.80;2.90;;;6.70;75.40;;;;;;5093678;28;20257;-66
2021/05/04 04:57:20;;;;;;;57.35;2.67;;;6.80;72.90;;;;;;5090132;28;20227;-66
2021/05/04 04:59:49;;;;;;;58.20;2.80;;;6.90;72.50;;;;;;5093366;28;20295;-67
2021/05/04 05:02:15;;;;;;;57.90;2.55;;;7.00;72.50;;;;;;5093409;28;20212;-66
2021/05/04 05:04:43;;;;;;;57.70;2.60;;;7.10;72.20;;;;;;5093271;28;20212;-66
2021/05/04 05:07:09;;;;;;;57.47;2.35;;;7.10;71.70;;;;;;5093722;28;20240;-66
2021/05/04 05:09:36;;;;;;;57.28;2.60;;;7.20;69.10;;;;;;5093723;28;20299;-66
2021/05/04 05:12:04;;;;;;;57.70;2.70;;;7.40;67.60;;;;;;5093114;28;20696;-65
2021/05/04 05:14:30;;;;;;;57.45;2.60;;;7.70;62.40;;;;;;5093427;28;20636;-66
2021/05/04 05:16:57;;;;;;;57.50;2.80;;;8.00;59.90;;;;;;5093185;28;20724;-66
2021/05/04 05:19:23;;;;;;;57.90;2.67;;;8.30;52.00;;;;;;5093487;28;20447;-66
2021/05/04 05:21:50;;;;;;;57.10;2.50;;;8.70;46.60;;;;;;5093185;28;20500;-67
2021/05/04 05:24:18;;;;;;;57.60;2.67;;;9.20;45.40;;;;;;5093301;28;20881;-66
2021/05/04 05:26:44;;;;;;;57.20;2.70;;;9.50;42.40;;;;;;5093312;28;20472;-66
2021/05/04 05:29:11;;;;;;;57.10;2.60;;;9.90;40.70;;;;;;5091076;28;20810;-66
2021/05/04 05:31:37;;;;;;;57.27;2.40;;;10.30;37.30;;;;;;5092791;28;20470;-65
2021/05/04 05:34:04;;;;;;;57.23;2.70;;;10.50;35.60;;;;;;5092796;28;20532;-66
2021/05/04 05:36:31;;;;;;;57.00;2.30;;;10.60;35.60;;;;;;5093092;28;21000;-66
2021/05/04 05:38:58;;;;;;;57.13;2.47;;;10.80;34.90;;;;;;5093125;28;20450;-66
2021/05/04 05:41:25;;;;;;;57.23;2.50;;;10.90;33.50;;;;;;5093049;28;20568;-66
2021/05/04 05:43:51;;;;;;;57.90;2.80;;;11.00;32.40;;;;;;5092642;28;20580;-66
2021/05/04 05:46:17;;;;;;;57.50;2.80;;;11.10;31.30;;;;;;5092809;28;20525;-66
2021/05/04 05:48:44;;;;;;;57.47;2.70;;;11.30;30.70;;;;;;5093249;28;21061;-66
2021/05/04 05:51:10;;;;;;;57.47;2.70;;;11.40;30.50;;;;;;5092663;28;20484;-66
2021/05/04 05:53:37;;;;;;;57.57;3.10;;;11.50;29.80;;;;;;5092263;28;20453;-66
2021/05/04 05:56:05;;;;;;;57.03;2.50;;;11.50;30.00;;;;;;5092752;28;20478;-66
2021/05/04 05:58:32;;;;;;;57.33;2.43;;;11.60;29.30;;;;;;5088993;28;21289;-65
2021/05/04 06:00:58;;;;;;;57.77;2.77;;;11.70;29.40;;;;;;5092492;28;20545;-66
2021/05/04 06:03:25;;;;;;;57.20;2.50;;;11.80;29.50;;;;;;5092654;28;20537;-66
2021/05/04 06:05:51;;;;;;;57.07;2.40;;;11.80;29.40;;;;;;5092518;28;20450;-66
2021/05/04 06:08:18;;;;;;;57.27;2.60;;;11.90;28.80;;;;;;5092419;28;20445;-66
2021/05/04 06:10:44;;;;;;;57.37;2.40;;;12.00;28.80;;;;;;5091634;28;20644;-66
2021/05/04 06:13:12;;;;;;;57.37;2.70;;;12.10;27.90;;;;;;5091878;28;20454;-66
2021/05/04 06:15:40;;;;;;;57.00;2.27;;;12.20;27.40;;;;;;5091959;28;20472;-66
2021/05/04 06:18:06;;;;;;;57.20;2.40;;;12.30;27.40;;;;;;5092523;28;20969;-66
2021/05/04 06:20:32;;;;;;;57.40;2.60;;;12.30;27.00;;;;;;5092323;28;20470;-66
2021/05/04 06:22:59;;;;;;;58.67;2.40;;;12.40;26.70;;;;;;5091857;28;20450;-66
2021/05/04 06:25:25;;;;;;;57.17;2.20;;;12.50;26.90;;;;;;5091907;28;21024;-66
2021/05/04 06:27:53;;;;;;;57.10;2.20;;;12.50;26.60;;;;;;5092019;28;20952;-65
2021/05/04 06:30:21;;;;;;;57.17;2.57;;;12.60;26.50;;;;;;5087923;28;21001;-66
2021/05/04 06:32:48;;;;;;;57.27;2.30;;;12.70;26.10;;;;;;5091688;28;20452;-66
2021/05/04 06:35:18;;;;;;;57.23;2.57;;;12.80;26.10;;;;;;5092044;28;21036;-65
2021/05/04 06:37:44;;;;;;;57.07;2.30;;;12.80;26.10;;;;;;5092118;28;20478;-66
2021/05/04 06:40:12;;;;;;;57.20;2.50;;;12.90;25.90;;;;;;5091871;28;20484;-66
2021/05/04 06:42:38;;;;;;;57.50;2.50;;;13.00;25.90;;;;;;5091294;28;20484;-66
2021/05/04 06:45:07;;;;;;;57.03;2.50;;;13.00;26.00;;;;;;5091767;28;20553;-66
2021/05/04 06:47:34;;;;;;;57.20;2.50;;;13.10;25.80;;;;;;5092050;28;20485;-66
2021/05/04 06:50:00;;;;;;;57.23;2.40;;;13.10;25.30;;;;;;5091811;28;21033;-66
2021/05/04 06:52:26;;;;;;;58.00;2.60;;;13.20;25.60;;;;;;5091450;28;20515;-66
2021/05/04 06:54:53;;;;;;;57.07;2.70;;;13.20;25.20;;;;;;5091430;28;20450;-67
2021/05/04 06:57:20;;;;;;;57.10;2.13;;;13.20;25.10;;;;;;5091915;28;20652;-66
2021/05/04 06:59:46;;;;;;;57.80;3.47;;;13.30;25.20;;;;;;5091585;28;20447;-66
2021/05/04 07:02:12;;;;;;;57.27;2.60;;;13.30;24.80;;;;;;5087984;28;20546;-67
2021/05/04 07:04:40;;;;;;;57.07;2.53;;;13.40;24.90;;;;;;5091250;28;20537;-66
2021/05/04 07:07:06;;;;;;;57.47;2.40;;;13.50;24.80;;;;;;5091428;28;20451;-66
2021/05/04 07:09:32;;;;;;;57.10;2.40;;;13.60;24.70;;;;;;5091418;28;20450;-65
2021/05/04 07:11:59;;;;;;;58.30;3.40;;;13.60;24.60;;;;;;5091426;28;20456;-66
2021/05/04 07:14:26;;;;;;;57.10;2.73;;;13.70;24.50;;;;;;5091362;28;21027;-66
2021/05/04 07:16:52;;;;;;;57.27;2.30;;;13.80;23.80;;;;;;5091335;28;20572;-65
2021/05/04 07:19:19;;;;;;;57.03;2.30;;;14.00;23.90;;;;;;5091545;28;20504;-66
2021/05/04 07:21:46;;;;;;;57.10;2.50;;;14.10;23.30;;;;;;5094058;28;20488;-67
2021/05/04 07:24:12;;;;;;;57.40;2.60;;;14.10;22.80;;;;;;5095005;28;20527;-66
2021/05/04 07:26:39;;;;;;;57.27;2.47;;;14.20;23.20;;;;;;5095826;28;20529;-67
2021/05/04 07:29:06;;;;;;;57.40;2.70;;;14.30;23.00;;;;;;5095625;28;20550;-66
2021/05/04 07:31:34;;;;;;;57.53;2.60;;;14.40;23.10;;;;;;5094408;28;20549;-66
2021/05/04 07:34:00;;;;;;;57.47;2.43;;;14.50;22.80;;;;;;5092961;28;20482;-65
2021/05/04 07:36:27;;;;;;;57.07;2.30;;;14.60;23.40;;;;;;5095505;28;21162;-66
2021/05/04 07:38:54;;;;;;;57.20;2.37;;;14.80;22.60;;;;;;5095053;28;20544;-66
2021/05/04 07:41:20;;;;;;;57.80;2.90;;;14.90;23.50;;;;;;5095489;28;20505;-66
2021/05/04 07:43:47;;;;;;;57.10;2.53;;;15.10;23.10;;;;;;5095049;28;20533;-66
2021/05/04 07:46:13;;;;;;;57.17;2.50;;;15.20;22.60;;;;;;5095421;28;20560;-66
2021/05/04 07:48:39;;;;;;;57.17;2.47;;;15.30;22.90;;;;;;5095304;28;20836;-66
2021/05/04 07:51:06;;;;;;;56.87;2.37;;;15.50;22.20;;;;;;5095062;28;20574;-67
2021/05/04 07:53:33;;;;;;;57.60;3.10;;;15.60;21.40;;;;;;5094681;28;20999;-66
2021/05/04 07:56:00;;;;;;;58.37;2.50;;;15.70;21.30;;;;;;5095013;28;20449;-66
2021/05/04 07:58:27;;;;;;;57.43;2.63;;;15.80;20.80;;;;;;5095452;28;20442;-65
2021/05/04 08:00:54;;;;;;;57.20;2.30;;;15.90;21.60;;;;;;5095100;28;21006;-66
2021/05/04 08:03:20;;;;;;;57.40;2.50;;;16.10;20.70;;;;;;5087218;28;20454;-66
2021/05/04 08:05:46;;;;;;;57.07;2.40;;;16.20;20.90;;;;;;5073996;28;20447;-66
2021/05/04 08:08:13;;;;;;;57.50;2.50;;;16.20;20.70;;;;;;5074635;28;20538;-66
2021/05/04 08:10:40;;;;;;;56.77;2.50;;;16.30;20.30;;;;;;5083976;28;20512;-68
2021/05/04 08:13:07;;;;;;;57.00;2.40;;;16.30;20.00;;;;;;5094025;28;20450;-66
2021/05/04 08:15:35;;;;;;;57.07;2.50;;;16.40;20.00;;;;;;5094451;28;21045;-66
2021/05/04 08:18:03;;;;;;;57.13;2.40;;;16.50;19.60;;;;;;5094863;28;20587;-65
2021/05/04 08:20:32;;;;;;;56.97;2.23;;;16.60;19.50;;;;;;5094575;28;20472;-66
2021/05/04 08:22:58;;;;;;;56.87;2.23;;;16.60;19.30;;;;;;5094383;28;20850;-65
2021/05/04 08:25:25;;;;;;;57.67;2.53;;;16.70;19.60;;;;;;5094100;28;20994;-66
2021/05/04 08:27:52;;;;;;;57.10;2.30;;;16.80;19.70;;;;;;5094765;28;20451;-67
2021/05/04 08:30:19;;;;;;;56.83;2.60;;;17.00;19.50;;;;;;5094515;28;20471;-65
2021/05/04 08:32:47;;;;;;;57.17;2.90;;;17.10;18.80;;;;;;5093022;28;20578;-66
2021/05/04 08:35:14;;;;;;;57.40;2.70;;;17.20;18.80;;;;;;5094371;28;20456;-66
2021/05/04 08:37:40;;;;;;;57.30;2.60;;;17.40;17.80;;;;;;5094342;28;20484;-65
2021/05/04 08:40:08;;;;;;;57.23;2.40;;;17.40;17.90;;;;;;5094128;28;20987;-66
2021/05/04 08:42:34;;;;;;;56.97;2.10;;;17.40;18.20;;;;;;5094013;28;20529;-66
2021/05/04 08:45:04;;;;;;;57.27;2.50;;;17.70;18.80;;;;;;5093977;28;20452;-66
2021/05/04 08:47:31;;;;;;;56.70;2.40;;;17.90;17.70;;;;;;5093964;28;20460;-66
2021/05/04 08:49:58;;;;;;;57.47;2.57;;;;;;;;;;5094267;28;20469;-66
2021/05/04 08:52:25;;;;;;;57.30;2.43;;;18.30;17.90;;;;;;5093663;28;20907;-66
2021/05/04 08:54:52;;;;;;;57.17;2.63;;;18.30;17.50;;;;;;5093603;28;20448;-66
2021/05/04 08:57:18;;;;;;;57.13;2.30;;;18.20;17.50;;;;;;5094090;28;20525;-66
2021/05/04 08:59:45;;;;;;;57.50;2.33;;;18.40;17.60;;;;;;5088069;28;20905;-66
2021/05/04 09:02:11;;;;;;;57.80;2.60;;;18.50;17.70;;;;;;5073202;28;20445;-67
2021/05/04 09:04:40;;;;;;;56.97;2.30;;;18.70;17.10;;;;;;5073735;28;20452;-66
2021/05/04 09:07:15;;;;;;;57.37;2.57;;;18.70;17.00;;;;;;5073924;28;20446;-66
2021/05/04 09:10:05;;;;;;;57.03;2.40;;;18.90;16.90;;;;;;5073449;28;20507;-66
2021/05/04 09:12:36;;;;;;;57.30;2.40;;;19.00;16.60;;;;;;5073043;28;20490;-66
2021/05/04 09:21:27;;;;;;;56.87;2.50;;;18.80;17.60;;;;;;5112063;28;20464;-66
2021/05/04 09:23:54;;;;;;;57.17;2.60;;;18.80;17.00;;;;;;5129240;28;20479;-65
2021/05/04 09:26:22;;;;;;;57.30;2.30;;;18.80;17.50;;;;;;5130058;28;20444;-66
2021/05/04 09:28:49;;;;;;;57.40;2.70;;;18.90;17.00;;;;;;5129715;28;20539;-66
2021/05/04 09:31:22;;;;;;;57.13;2.37;;;19.00;17.60;;;;;;5129374;27;20554;-66
2021/05/04 09:33:49;;;;;;;56.77;2.20;;;19.20;17.10;;;;;;5129362;28;20449;-66
2021/05/04 09:36:37;;;;;;;56.73;2.30;;;19.40;17.10;;;;;;5129585;28;20967;-66
2021/05/04 09:39:04;;;;;;;57.03;2.27;;;19.40;16.80;;;;;;5129348;27;20523;-65
2021/05/04 09:41:31;;;;;;;57.60;2.40;;;19.40;16.20;;;;;;5129501;28;20879;-66
2021/05/04 09:43:57;;;;;;;57.20;2.33;;;19.40;16.30;;;;;;5129134;27;20510;-65
2021/05/04 09:46:45;;;;;;;57.00;2.30;;;19.40;16.50;;;;;;5129451;27;20540;-65
2021/05/04 09:49:29;;;;;;;57.17;2.30;;;19.50;16.50;;;;;;5129309;27;20527;-65
2021/05/04 09:52:24;;;;;;;57.20;2.60;;;19.60;16.30;;;;;;5128802;27;20573;-65
2021/05/04 09:54:51;;;;;;;56.93;2.30;;;19.80;17.30;;;;;;5128964;27;20440;-65
2021/05/04 09:57:31;;;;;;;56.90;2.30;;;20.10;15.70;;;;;;5129075;28;20889;-66
2021/05/04 09:59:57;;;;;;;56.80;2.30;;;20.20;16.70;;;;;;5129116;28;20492;-66
2021/05/04 10:02:24;;;;;;;57.20;2.40;;;20.50;16.60;;;;;;5128693;27;20604;-65
2021/05/04 10:04:52;;;;;;;56.87;2.00;;;20.60;15.30;;;;;;5129069;27;20527;-66
2021/05/04 10:07:19;;;;;;;56.90;2.20;;;20.80;14.20;;;;;;5129104;27;20520;-64
2021/05/04 10:09:46;;;;;;;57.37;2.23;;;20.80;14.40;;;;;;5128883;28;20473;-66
2021/05/04 10:12:13;;;;;;;57.50;2.53;;;21.00;14.00;;;;;;5128411;28;20519;-66
2021/05/04 10:14:41;;;;;;;57.37;2.50;;;21.20;13.90;;;;;;5128051;27;20452;-66
2021/05/04 10:17:08;;;;;;;57.10;2.10;;;21.40;13.70;;;;;;5128604;27;20492;-66
2021/05/04 10:19:37;;;;;;;57.03;2.30;;;21.40;13.40;;;;;;5128755;27;20537;-66
2021/05/04 10:22:05;;;;;;;56.87;2.23;;;21.40;13.70;;;;;;5128129;28;20452;-65
2021/05/04 10:24:33;;;;;;;57.27;2.40;;;21.50;12.90;;;;;;5128347;28;20536;-65
2021/05/04 10:27:01;;;;;;;57.07;2.40;;;21.60;13.00;;;;;;5128515;27;20466;-66
2021/05/04 10:29:29;;;;;;;57.20;2.30;;;21.80;12.60;;;;;;5116747;27;20449;-66
2021/05/04 10:31:58;;;;;;;56.97;2.10;;;21.80;12.60;;;;;;5114466;28;20560;-65
2021/05/04 10:34:29;;;;;;;57.07;2.10;;;21.80;12.90;;;;;;5114674;28;20494;-67
2021/05/04 10:36:57;;;;;;;57.50;2.30;;;21.80;12.20;;;;;;5114549;28;20867;-65
2021/05/04 10:39:41;;;;;;;57.17;2.20;;;21.60;13.00;;;;;;5114515;28;20485;-66
2021/05/04 10:42:09;;;;;;;56.93;2.20;;;21.70;12.40;;;;;;5114026;28;20963;-67
2021/05/04 10:45:08;;;;;;;57.00;2.00;;;21.90;12.10;;;;;;5114099;28;21116;-66
2021/05/04 10:47:49;;;;;;;57.03;2.40;;;22.00;12.70;;;;;;5114577;28;20824;-66
2021/05/04 10:50:22;;;;;;;56.67;2.30;;;22.20;12.40;;;;;;5114216;28;20481;-65
2021/05/04 10:53:00;;;;;;;56.70;2.10;;;22.20;11.70;;;;;;5114133;28;20508;-66
2021/05/04 10:56:07;;;;;;;56.77;2.13;;;21.60;12.90;;;;;;5114085;28;20457;-65
2021/05/04 10:58:48;;;;;;;56.93;2.50;;;21.50;13.10;;;;;;5114011;28;20449;-66
2021/05/04 11:01:18;;;;;;;57.50;2.10;;;21.50;13.10;;;;;;5114085;28;20493;-65
2021/05/04 11:03:52;;;;;;;56.97;2.43;;;21.90;13.00;;;;;;5113571;28;20450;-65
2021/05/04 11:06:44;;;;;;;56.63;2.20;;;22.00;12.20;;;;;;5114075;28;20446;-65
2021/05/04 11:09:15;;;;;;;56.87;2.30;;;22.10;13.10;;;;;;5113757;28;20548;-66
2021/05/04 11:11:46;;;;;;;58.57;2.10;;;22.70;13.60;;;;;;5114137;28;20554;-65
2021/05/04 11:14:29;;;;;;;56.50;2.30;;;23.40;12.90;;;;;;5113326;28;20505;-66
2021/05/04 11:17:10;;;;;;;56.97;2.07;;;23.30;12.80;;;;;;5113661;28;20485;-66
2021/05/04 11:19:41;;;;;;;57.40;2.60;;;23.00;11.90;;;;;;5113199;28;20855;-65
2021/05/04 11:22:11;;;;;;;56.70;2.37;;;22.80;12.20;;;;;;5112805;28;20962;-65
2021/05/04 11:24:41;;;;;;;56.90;2.20;;;22.20;11.70;;;;;;5113007;28;20510;-65
2021/05/04 11:27:20;;;;;;;57.20;2.67;;;21.40;11.70;;;;;;5113109;28;20529;-66
2021/05/04 11:29:47;;;;;;;56.87;2.00;;;20.50;12.50;;;;;;5113618;28;20459;-66
2021/05/04 11:32:15;;;;;;;56.97;2.20;;;20.20;13.10;;;;;;5113087;28;20547;-65
2021/05/04 11:34:43;;;;;;;57.20;2.40;;;20.60;12.80;;;;;;5113429;28;20892;-67
2021/05/04 11:37:11;;;;;;;56.67;2.30;;;21.00;12.90;;;;;;5113044;28;20505;-66
2021/05/04 11:39:38;;;;;;;57.10;2.10;;;21.10;13.40;;;;;;5112784;28;20871;-66
2021/05/04 11:42:05;;;;;;;57.37;2.73;;;21.00;12.70;;;;;;5112714;28;20534;-66
2021/05/04 11:44:34;;;;;;;57.27;2.50;;;20.70;12.90;;;;;;5113527;28;20540;-66
2021/05/04 11:47:19;;;;;;;57.00;2.40;;;20.90;13.00;;;;;;5113198;28;20507;-66
2021/05/04 11:49:46;;;;;;;57.27;2.60;;;20.60;13.40;;;;;;5113157;28;20528;-66
2021/05/04 11:52:16;;;;;;;56.87;2.20;;;20.20;14.30;;;;;;5112704;28;20937;-66
2021/05/04 11:54:42;;;;;;;56.63;2.40;;;20.00;14.50;;;;;;5112864;28;20457;-66
2021/05/04 11:57:08;;;;;;;57.07;2.20;;;20.20;14.10;;;;;;5109148;28;20524;-66
2021/05/04 11:59:36;;;;;;;56.50;2.00;;;20.40;14.10;;;;;;5113031;28;20477;-67
2021/05/04 12:02:02;;;;;;;57.17;2.40;;;20.40;14.40;;;;;;5112340;28;21007;-66
2021/05/04 12:04:48;;;;;;;57.40;2.30;;;20.10;14.50;;;;;;5112956;28;20537;-66
2021/05/04 12:07:31;;;;;;;56.93;1.97;;;19.80;14.70;;;;;;5113169;28;20517;-66
2021/05/04 12:09:58;;;;;;;56.67;2.20;;;19.70;15.10;;;;;;5113167;28;20574;-67
2021/05/04 12:12:24;;;;;;;57.30;2.30;;;19.90;15.60;;;;;;5112994;28;20590;-65
2021/05/04 12:14:58;;;;;;;56.53;2.30;;;20.00;15.50;;;;;;5112593;28;20537;-65
2021/05/04 12:17:26;;;;;;;57.30;2.40;;;20.20;15.90;;;;;;5112811;28;20534;-66
2021/05/04 12:19:53;;;;;;;57.00;2.20;;;20.20;16.00;;;;;;5112416;28;20513;-65
2021/05/04 12:22:19;;;;;;;56.73;2.20;;;20.50;16.10;;;;;;5112267;28;20814;-66
2021/05/04 12:24:46;;;;;;;56.90;2.10;;;20.50;15.30;;;;;;5112365;28;20441;-66
2021/05/04 12:27:12;;;;;;;56.77;2.00;;;20.00;15.90;;;;;;5108808;28;20866;-66
2021/05/04 12:29:39;;;;;;;57.00;2.20;;;19.80;16.60;;;;;;5112212;28;20449;-65
2021/05/04 12:32:07;;;;;;;57.27;2.47;;;19.80;16.60;;;;;;5112137;28;20493;-66
2021/05/04 12:34:34;;;;;;;56.70;2.10;;;19.60;17.30;;;;;;5112635;28;20459;-66
2021/05/04 12:37:01;;;;;;;56.87;2.20;;;19.50;18.70;;;;;;5112121;28;21035;-66
2021/05/04 12:39:30;;;;;;;57.10;2.10;;;19.90;18.00;;;;;;5112402;28;20449;-66
2021/05/04 12:41:59;;;;;;;57.27;2.20;;;20.10;18.40;;;;;;5112235;28;20465;-66
2021/05/04 12:44:27;;;;;;;56.90;2.00;;;20.20;19.00;;;;;;5112667;28;20453;-65
2021/05/04 12:46:54;;;;;;;57.10;2.30;;;20.40;19.10;;;;;;5112137;28;20554;-65
2021/05/04 12:49:33;;;;;;;56.77;2.10;;;20.30;19.10;;;;;;5111920;28;20474;-67
2021/05/04 12:52:06;;;;;;;57.00;2.10;;;20.20;18.70;;;;;;5111736;28;20464;-66